Time;durP1;ratioP1;P1;durP2;ratioP2;P2;SDS_P1;SDS_P2;PMS_P1;PMS_P2;Temp;Humidity;BMP_temperature;BMP_pressure;BME280_temperature;BME280_humidity;BME280_pressure;Samples;Min_cycle;Max_cycle;Signal;HPM_P1;HPM_P2
2021/09/20 00:01:22;;;;;;;;;;;21.10;70.60;;;;;;5034082;28;1422;-73
2021/09/20 00:03:48;;;;;;;;;;;21.10;70.60;;;;;;5034222;28;1200;-73
2021/09/20 00:06:13;;;;;;;;;;;21.10;70.60;;;;;;5033525;28;1706;-72
2021/09/20 00:08:39;;;;;;;;;;;21.10;70.60;;;;;;5016253;28;1902;-72
2021/09/20 00:11:04;;;;;;;;;;;21.10;70.60;;;;;;5033917;28;1434;-73
2021/09/20 00:13:30;;;;;;;;;;;21.10;70.60;;;;;;5034021;28;1676;-72
2021/09/20 00:15:55;;;;;;;;;;;21.10;70.70;;;;;;5033546;28;1226;-73
2021/09/20 00:18:20;;;;;;;;;;;21.10;70.70;;;;;;5033939;28;1694;-73
2021/09/20 00:20:46;;;;;;;;;;;21.10;70.70;;;;;;5033612;28;1477;-73
2021/09/20 00:23:11;;;;;;;;;;;21.10;70.70;;;;;;5016230;28;1672;-73
2021/09/20 00:25:37;;;;;;;;;;;21.10;70.70;;;;;;5033508;28;1611;-73
2021/09/20 00:28:02;;;;;;;;;;;21.10;70.70;;;;;;5015760;28;1954;-72
2021/09/20 00:30:28;;;;;;;;;;;21.10;70.70;;;;;;5033475;28;1695;-72
2021/09/20 00:32:53;;;;;;;;;;;21.10;70.70;;;;;;5026497;28;1612;-73
2021/09/20 00:35:18;;;;;;;;;;;21.10;70.70;;;;;;5014488;28;1488;-72
2021/09/20 00:37:44;;;;;;;;;;;21.10;70.70;;;;;;5032863;28;1422;-72
2021/09/20 00:40:10;;;;;;;;;;;21.10;70.70;;;;;;5015791;28;1745;-72
2021/09/20 00:42:35;;;;;;;;;;;21.10;70.70;;;;;;5033458;28;1351;-73
2021/09/20 00:45:00;;;;;;;;;;;21.10;70.80;;;;;;5033212;28;1702;-72
2021/09/20 00:47:26;;;;;;;;;;;21.10;70.80;;;;;;5015357;28;1973;-73
2021/09/20 00:49:51;;;;;;;;;;;21.10;70.80;;;;;;5033318;28;1396;-73
2021/09/20 00:52:17;;;;;;;;;;;21.10;70.80;;;;;;5033036;28;1173;-73
2021/09/20 00:54:42;;;;;;;;;;;21.10;70.80;;;;;;5033258;28;1644;-72
2021/09/20 00:57:08;;;;;;;;;;;21.00;70.70;;;;;;5015200;28;1393;-73
2021/09/20 00:59:33;;;;;;;;;;;21.10;70.80;;;;;;5033016;28;1734;-72
2021/09/20 01:01:59;;;;;;;;;;;21.10;70.80;;;;;;5015527;28;1403;-73
2021/09/20 01:04:24;;;;;;;;;;;21.10;70.80;;;;;;4999045;28;1461;-72
2021/09/20 01:06:50;;;;;;;;;;;21.10;70.80;;;;;;5014802;28;1902;-73
2021/09/20 01:09:15;;;;;;;;;;;21.10;70.80;;;;;;5032970;28;1522;-73
2021/09/20 01:11:41;;;;;;;;;;;21.10;70.80;;;;;;5032995;28;1375;-72
2021/09/20 01:14:06;;;;;;;;;;;21.10;70.80;;;;;;4998944;28;1501;-72
2021/09/20 01:16:32;;;;;;;;;;;21.10;70.80;;;;;;5014242;28;1330;-73
2021/09/20 01:18:57;;;;;;;;;;;21.10;70.90;;;;;;5032861;28;1402;-73
2021/09/20 01:21:23;;;;;;;;;;;21.10;70.90;;;;;;5032774;28;1277;-72
2021/09/20 01:23:48;;;;;;;;;;;21.10;70.90;;;;;;5015321;28;1315;-73
2021/09/20 01:26:13;;;;;;;;;;;21.00;71.60;;;;;;5032574;28;1140;-72
2021/09/20 01:28:39;;;;;;;;;;;21.10;70.90;;;;;;5032580;28;1962;-72
2021/09/20 01:31:05;;;;;;;;;;;21.10;70.80;;;;;;5032862;28;1167;-72
2021/09/20 01:33:30;;;;;;;;;;;21.10;70.90;;;;;;5032861;28;1754;-72
2021/09/20 01:35:55;;;;;;;;;;;21.10;70.80;;;;;;5032287;28;1806;-72
2021/09/20 01:38:21;;;;;;;;;;;21.10;70.80;;;;;;5014932;28;1439;-73
2021/09/20 01:40:46;;;;;;;;;;;21.10;70.80;;;;;;5032782;28;1367;-72
2021/09/20 01:43:12;;;;;;;;;;;21.10;70.90;;;;;;5032792;28;1720;-72
2021/09/20 01:45:38;;;;;;;;;;;21.10;70.80;;;;;;5014812;28;1188;-71
2021/09/20 01:48:03;;;;;;;;;;;21.00;70.80;;;;;;5031689;28;1957;-71
2021/09/20 01:50:29;;;;;;;;;;;21.00;70.90;;;;;;5023095;28;1596;-71
2021/09/20 01:52:54;;;;;;;;;;;21.10;70.90;;;;;;5025285;28;1356;-73
2021/09/20 01:55:19;;;;;;;;;;;21.10;70.90;;;;;;5022370;28;1350;-72
2021/09/20 01:57:45;;;;;;;;;;;21.10;70.90;;;;;;5023651;28;1416;-71
2021/09/20 02:00:11;;;;;;;;;;;21.00;70.90;;;;;;5024256;28;1649;-71
2021/09/20 02:02:36;;;;;;;;;;;21.10;70.90;;;;;;5024179;28;1525;-72
2021/09/20 02:05:02;;;;;;;;;;;21.00;70.90;;;;;;5026273;28;1608;-72
2021/09/20 02:07:27;;;;;;;;;;;21.00;70.90;;;;;;5023771;28;1910;-72
2021/09/20 02:09:53;;;;;;;;;;;21.00;70.90;;;;;;5028407;28;1608;-69
2021/09/20 02:12:18;;;;;;;;;;;21.00;70.90;;;;;;5032348;28;1700;-73
2021/09/20 02:14:44;;;;;;;;;;;21.00;70.90;;;;;;5014761;28;1400;-73
2021/09/20 02:17:09;;;;;;;;;;;21.00;70.90;;;;;;5014390;28;1428;-73
2021/09/20 02:19:34;;;;;;;;;;;21.00;71.00;;;;;;5014674;28;838;-73
2021/09/20 02:22:00;;;;;;;;;;;21.10;71.00;;;;;;5034176;28;1441;-73
2021/09/20 02:24:25;;;;;;;;;;;21.00;70.90;;;;;;5036129;28;1049;-72
2021/09/20 02:26:51;;;;;;;;;;;21.00;70.90;;;;;;5001260;28;1951;-73
2021/09/20 02:29:16;;;;;;;;;;;21.10;71.00;;;;;;5001738;28;1719;-73
2021/09/20 02:31:42;;;;;;;;;;;21.00;71.00;;;;;;5035914;28;1407;-73
2021/09/20 02:34:07;;;;;;;;;;;21.00;71.00;;;;;;5035784;28;1445;-73
2021/09/20 02:36:32;;;;;;;;;;;21.00;71.00;;;;;;5035401;28;1370;-73
2021/09/20 02:38:58;;;;;;;;;;;21.00;71.00;;;;;;5035645;28;1613;-73
2021/09/20 02:41:23;;;;;;;;;;;21.00;71.00;;;;;;5018006;28;1297;-73
2021/09/20 02:43:49;;;;;;;;;;;21.00;71.00;;;;;;5017761;28;1681;-72
2021/09/20 02:46:15;;;;;;;;;;;21.00;71.00;;;;;;5017551;28;1704;-72
2021/09/20 02:48:41;;;;;;;;;;;21.10;71.00;;;;;;5017821;28;1969;-71
2021/09/20 02:51:06;;;;;;;;;;;21.10;71.00;;;;;;5035473;28;1391;-72
2021/09/20 02:53:32;;;;;;;;;;;21.00;71.00;;;;;;5035740;28;1183;-72
2021/09/20 02:55:57;;;;;;;;;;;21.00;71.00;;;;;;5035217;28;1401;-72
2021/09/20 02:58:22;;;;;;;;;;;21.10;71.00;;;;;;5035518;28;1216;-72
2021/09/20 03:00:48;;;;;;;;;;;21.10;71.10;;;;;;5035431;28;1114;-72
2021/09/20 03:03:13;;;;;;;;;;;21.00;71.00;;;;;;5017701;28;1411;-72
2021/09/20 03:05:39;;;;;;;;;;;21.00;71.00;;;;;;5034869;28;1666;-72
2021/09/20 03:08:04;;;;;;;;;;;21.00;71.00;;;;;;5034918;28;1902;-72
2021/09/20 03:10:30;;;;;;;;;;;21.00;71.00;;;;;;5017609;28;1494;-72
2021/09/20 03:12:55;;;;;;;;;;;21.00;71.00;;;;;;5035044;28;1386;-72
2021/09/20 03:15:21;;;;;;;;;;;21.00;71.00;;;;;;5034999;28;1237;-72
2021/09/20 03:17:46;;;;;;;;;;;21.10;71.10;;;;;;5034562;28;1267;-72
2021/09/20 03:20:12;;;;;;;;;;;21.10;71.10;;;;;;5017290;28;1316;-72
2021/09/20 03:22:37;;;;;;;;;;;21.00;71.10;;;;;;5036250;28;1151;-71
2021/09/20 03:25:03;;;;;;;;;;;21.00;71.10;;;;;;5017150;28;1562;-72
2021/09/20 03:27:28;;;;;;;;;;;21.00;71.00;;;;;;5034536;28;1902;-72
2021/09/20 03:29:54;;;;;;;;;;;21.00;71.10;;;;;;5034773;28;1187;-72
2021/09/20 03:32:19;;;;;;;;;;;21.00;71.10;;;;;;5016518;28;1374;-72
2021/09/20 03:34:45;;;;;;;;;;;21.00;71.10;;;;;;5033883;28;1398;-72
2021/09/20 03:37:10;;;;;;;;;;;21.00;71.10;;;;;;5034417;28;1192;-72
2021/09/20 03:39:36;;;;;;;;;;;21.00;71.10;;;;;;5035056;28;1077;-72
2021/09/20 03:42:01;;;;;;;;;;;21.00;71.10;;;;;;5034455;28;1353;-71
2021/09/20 03:44:26;;;;;;;;;;;21.00;71.10;;;;;;5034552;28;1180;-72
2021/09/20 03:46:52;;;;;;;;;;;21.00;71.10;;;;;;5016404;28;1501;-73
2021/09/20 03:49:17;;;;;;;;;;;21.00;71.10;;;;;;5034296;28;1957;-73
2021/09/20 03:51:43;;;;;;;;;;;21.00;71.10;;;;;;5016549;28;1454;-72
2021/09/20 03:54:08;;;;;;;;;;;21.00;71.10;;;;;;5034388;28;1765;-71
2021/09/20 03:56:34;;;;;;;;;;;21.00;71.20;;;;;;5033752;28;1500;-70
2021/09/20 03:58:59;;;;;;;;;;;21.00;71.20;;;;;;5034183;28;1168;-70
2021/09/20 04:01:24;;;;;;;;;;;21.00;71.10;;;;;;5016503;28;1386;-71
2021/09/20 04:03:50;;;;;;;;;;;21.00;71.20;;;;;;5034028;28;1677;-71
2021/09/20 04:06:15;;;;;;;;;;;21.00;71.20;;;;;;5033758;28;1362;-71
2021/09/20 04:08:41;;;;;;;;;;;21.00;71.20;;;;;;5016076;28;1898;-71
2021/09/20 04:11:06;;;;;;;;;;;21.00;71.20;;;;;;5016082;28;1123;-70
2021/09/20 04:13:31;;;;;;;;;;;21.00;71.20;;;;;;5033846;28;1115;-71
2021/09/20 04:15:57;;;;;;;;;;;21.00;71.20;;;;;;5033613;28;1374;-71
2021/09/20 04:18:23;;;;;;;;;;;21.00;71.20;;;;;;5033803;28;1403;-72
2021/09/20 04:20:49;;;;;;;;;;;21.00;71.30;;;;;;5016100;28;1761;-73
2021/09/20 04:23:20;;;;;;;;;;;21.00;71.20;;;;;;5033934;28;1163;-73
2021/09/20 04:25:45;;;;;;;;;;;21.00;71.20;;;;;;5002803;28;1631;-74
2021/09/20 04:28:11;;;;;;;;;;;21.00;71.20;;;;;;5033571;28;1899;-73
2021/09/20 04:30:36;;;;;;;;;;;21.00;71.20;;;;;;5033774;28;1687;-73
2021/09/20 04:33:03;;;;;;;;;;;21.00;71.30;;;;;;5015759;28;1394;-72
2021/09/20 04:35:28;;;;;;;;;;;21.00;71.20;;;;;;5033670;28;1254;-71
2021/09/20 04:37:54;;;;;;;;;;;21.00;71.20;;;;;;5032971;28;1477;-71
2021/09/20 04:40:19;;;;;;;;;;;21.00;71.20;;;;;;5033447;28;1462;-71
2021/09/20 04:42:44;;;;;;;;;;;21.00;71.20;;;;;;5015806;28;1388;-71
2021/09/20 04:45:10;;;;;;;;;;;21.00;71.30;;;;;;5033343;28;1139;-72
2021/09/20 04:47:35;;;;;;;;;;;21.00;71.30;;;;;;5031550;28;1961;-71
2021/09/20 04:50:01;;;;;;;;;;;21.00;71.30;;;;;;5033458;28;1375;-71
2021/09/20 04:52:26;;;;;;;;;;;21.00;72.00;;;;;;5015797;28;1713;-71
2021/09/20 04:54:53;;;;;;;;;;;21.00;71.30;;;;;;5033300;28;1217;-71
2021/09/20 04:57:18;;;;;;;;;;;21.00;71.30;;;;;;5032960;28;1202;-71
2021/09/20 04:59:43;;;;;;;;;;;21.00;71.30;;;;;;5033296;28;1741;-71
2021/09/20 05:02:09;;;;;;;;;;;21.00;71.30;;;;;;5032873;28;1813;-72
2021/09/20 05:04:34;;;;;;;;;;;21.00;71.30;;;;;;5033223;28;1437;-71
2021/09/20 05:07:00;;;;;;;;;;;21.00;71.30;;;;;;5015006;28;1965;-70
2021/09/20 05:09:25;;;;;;;;;;;21.00;71.30;;;;;;5033064;28;1543;-71
2021/09/20 05:11:50;;;;;;;;;;;21.00;71.30;;;;;;5032973;28;863;-71
2021/09/20 05:14:16;;;;;;;;;;;21.00;71.30;;;;;;5033148;28;1727;-73
2021/09/20 05:16:41;;;;;;;;;;;21.00;71.30;;;;;;5032431;28;1194;-72
2021/09/20 05:19:07;;;;;;;;;;;21.00;71.30;;;;;;5032896;28;1311;-72
2021/09/20 05:21:32;;;;;;;;;;;21.00;71.40;;;;;;5032911;28;1464;-72
2021/09/20 05:23:58;;;;;;;;;;;21.00;71.40;;;;;;5032771;28;1391;-72
2021/09/20 05:26:23;;;;;;;;;;;21.00;71.40;;;;;;5032751;28;1367;-72
2021/09/20 05:28:48;;;;;;;;;;;21.00;71.40;;;;;;5032619;28;1906;-72
2021/09/20 05:31:14;;;;;;;;;;;21.00;71.40;;;;;;5032600;28;1373;-72
2021/09/20 05:33:39;;;;;;;;;;;21.00;71.40;;;;;;5032865;28;1262;-72
2021/09/20 05:36:05;;;;;;;;;;;21.00;71.40;;;;;;5032597;28;1524;-71
2021/09/20 05:38:31;;;;;;;;;;;21.00;71.40;;;;;;5014786;28;1486;-71
2021/09/20 05:40:56;;;;;;;;;;;21.00;71.40;;;;;;5015088;28;1693;-72
2021/09/20 05:43:21;;;;;;;;;;;21.00;71.40;;;;;;5032685;28;1521;-72
2021/09/20 05:45:47;;;;;;;;;;;21.00;71.40;;;;;;5014782;28;1396;-72
2021/09/20 05:48:15;;;;;;;;;;;21.00;71.40;;;;;;5032393;28;1902;-72
2021/09/20 05:50:40;;;;;;;;;;;21.00;71.40;;;;;;5032750;28;1382;-73
2021/09/20 05:53:06;;;;;;;;;;;21.00;71.40;;;;;;5032619;28;1466;-72
2021/09/20 05:55:31;;;;;;;;;;;21.00;71.40;;;;;;5032823;28;1230;-72
2021/09/20 05:57:57;;;;;;;;;;;21.00;71.40;;;;;;5035893;28;1377;-72
2021/09/20 06:00:22;;;;;;;;;;;21.00;71.40;;;;;;5036515;28;1438;-72
2021/09/20 06:02:47;;;;;;;;;;;21.00;71.50;;;;;;5036368;28;1597;-72
2021/09/20 06:05:14;;;;;;;;;;;21.00;71.40;;;;;;5036414;28;1685;-72
2021/09/20 06:07:39;;;;;;;;;;;21.00;71.50;;;;;;5035725;28;1906;-71
2021/09/20 06:10:06;;;;;;;;;;;21.00;71.40;;;;;;5018625;28;1402;-70
2021/09/20 06:12:31;;;;;;;;;;;21.00;71.50;;;;;;5029869;28;1971;-70
2021/09/20 06:14:56;;;;;;;;;;;21.00;71.50;;;;;;5035956;28;1321;-70
2021/09/20 06:17:22;;;;;;;;;;;21.00;71.50;;;;;;5035816;28;1620;-70
2021/09/20 06:19:47;;;;;;;;;;;21.00;71.40;;;;;;5036129;28;1672;-70
2021/09/20 06:22:13;;;;;;;;;;;21.10;71.40;;;;;;5035929;28;1498;-71
2021/09/20 06:24:38;;;;;;;;;;;21.10;71.30;;;;;;5018440;28;1414;-71
2021/09/20 06:27:04;;;;;;;;;;;21.10;71.10;;;;;;5035444;28;1981;-72
2021/09/20 06:29:29;;;;;;;;;;;21.10;71.00;;;;;;5035985;28;1403;-72
2021/09/20 06:31:57;;;;;;;;;;;21.20;70.90;;;;;;5035634;28;1390;-71
2021/09/20 06:34:22;;;;;;;;;;;21.20;70.80;;;;;;5035863;28;1417;-72
2021/09/20 06:36:49;;;;;;;;;;;21.20;70.60;;;;;;5018045;28;1760;-71
2021/09/20 06:39:14;;;;;;;;;;;21.30;70.50;;;;;;5032910;28;1655;-71
2021/09/20 06:41:39;;;;;;;;;;;21.30;70.50;;;;;;5033642;28;1375;-72
2021/09/20 06:44:05;;;;;;;;;;;21.30;70.30;;;;;;5017672;28;1522;-71
2021/09/20 06:46:31;;;;;;;;;;;21.30;70.20;;;;;;5017558;28;1467;-72
2021/09/20 06:48:57;;;;;;;;;;;21.40;70.20;;;;;;5017861;28;1985;-71
2021/09/20 06:51:23;;;;;;;;;;;21.40;70.20;;;;;;5017606;28;1745;-72
2021/09/20 06:53:49;;;;;;;;;;;21.40;70.10;;;;;;5035208;28;1160;-72
2021/09/20 06:56:14;;;;;;;;;;;21.40;69.90;;;;;;5035287;28;1016;-71
2021/09/20 06:58:40;;;;;;;;;;;21.40;69.90;;;;;;5035555;28;1390;-72
2021/09/20 07:01:05;;;;;;;;;;;21.40;69.80;;;;;;5017693;28;1642;-72
2021/09/20 07:03:30;;;;;;;;;;;21.50;69.80;;;;;;5035371;28;1356;-72
2021/09/20 07:05:56;;;;;;;;;;;21.50;69.70;;;;;;5017030;28;1803;-72
2021/09/20 07:08:21;;;;;;;;;;;21.50;69.60;;;;;;5034877;28;1957;-72
2021/09/20 07:10:47;;;;;;;;;;;21.50;69.60;;;;;;5035287;28;1306;-72
2021/09/20 07:13:12;;;;;;;;;;;21.50;70.30;;;;;;5034997;28;1385;-72
2021/09/20 07:15:38;;;;;;;;;;;21.50;69.50;;;;;;5034871;28;1415;-72
2021/09/20 07:18:04;;;;;;;;;;;21.50;69.50;;;;;;5034845;28;1354;-72
2021/09/20 07:20:29;;;;;;;;;;;21.60;69.50;;;;;;5016981;28;1200;-72
2021/09/20 07:22:54;;;;;;;;;;;21.50;69.40;;;;;;5034850;28;1037;-72
2021/09/20 07:25:20;;;;;;;;;;;21.60;69.50;;;;;;5034973;28;1435;-72
2021/09/20 07:27:45;;;;;;;;;;;21.60;69.40;;;;;;5034395;28;1899;-72
2021/09/20 07:30:15;;;;;;;;;;;21.60;69.40;;;;;;5017143;28;1689;-70
2021/09/20 07:32:41;;;;;;;;;;;21.60;69.40;;;;;;5017497;28;1386;-70
2021/09/20 07:35:07;;;;;;;;;;;21.60;69.30;;;;;;5000876;28;1626;-71
2021/09/20 07:37:32;;;;;;;;;;;21.60;69.30;;;;;;5034171;28;1261;-71
2021/09/20 07:39:58;;;;;;;;;;;21.60;69.30;;;;;;5016494;28;1534;-71
2021/09/20 07:42:23;;;;;;;;;;;21.60;69.30;;;;;;5031094;28;2089;-70
2021/09/20 07:44:49;;;;;;;;;;;21.60;69.30;;;;;;5033887;28;1678;-71
2021/09/20 07:47:14;;;;;;;;;;;21.60;69.20;;;;;;5025830;28;1902;-71
2021/09/20 07:49:40;;;;;;;;;;;21.60;69.20;;;;;;5033506;28;1578;-71
2021/09/20 07:52:05;;;;;;;;;;;21.60;69.20;;;;;;5033428;28;1538;-70
2021/09/20 07:54:30;;;;;;;;;;;21.60;69.20;;;;;;5015037;28;1435;-71
2021/09/20 07:56:56;;;;;;;;;;;21.60;69.20;;;;;;5033317;28;1362;-71
2021/09/20 07:59:21;;;;;;;;;;;21.60;69.20;;;;;;5033631;28;1297;-71
2021/09/20 08:01:47;;;;;;;;;;;21.60;69.20;;;;;;5033707;28;1354;-71
2021/09/20 08:04:12;;;;;;;;;;;21.60;69.20;;;;;;5033730;28;1664;-71
2021/09/20 08:06:38;;;;;;;;;;;21.60;69.20;;;;;;5032907;28;1655;-71
2021/09/20 08:09:03;;;;;;;;;;;21.70;69.30;;;;;;5033279;28;1985;-71
2021/09/20 08:11:29;;;;;;;;;;;21.70;69.30;;;;;;5033562;28;1351;-71
2021/09/20 08:13:55;;;;;;;;;;;21.70;69.30;;;;;;5033217;28;1230;-71
2021/09/20 08:16:20;;;;;;;;;;;21.60;69.30;;;;;;5025222;28;1820;-70
2021/09/20 08:18:46;;;;;;;;;;;21.70;69.30;;;;;;5027728;28;1942;-70
2021/09/20 08:21:11;;;;;;;;;;;21.70;69.30;;;;;;5030176;28;1426;-71
2021/09/20 08:23:37;;;;;;;;;;;21.70;69.30;;;;;;5031306;28;1476;-70
2021/09/20 08:26:02;;;;;;;;;;;21.70;69.30;;;;;;5013655;28;2320;-70
2021/09/20 08:28:28;;;;;;;;;;;21.70;69.30;;;;;;5014607;28;1895;-71
2021/09/20 08:30:53;;;;;;;;;;;21.70;69.30;;;;;;5032084;28;1347;-71
2021/09/20 08:33:19;;;;;;;;;;;21.70;69.30;;;;;;5032117;28;1388;-70
2021/09/20 08:35:44;;;;;;;;;;;21.70;69.30;;;;;;5031785;28;1359;-71
2021/09/20 08:38:09;;;;;;;;;;;21.70;69.30;;;;;;5032424;28;1633;-70
2021/09/20 08:40:35;;;;;;;;;;;21.70;69.40;;;;;;5029352;28;2067;-70
2021/09/20 08:43:00;;;;;;;;;;;21.70;69.40;;;;;;5015206;28;1360;-70
2021/09/20 08:45:26;;;;;;;;;;;21.70;69.40;;;;;;5031321;28;1568;-70
2021/09/20 08:47:52;;;;;;;;;;;21.70;69.40;;;;;;5028413;28;1909;-70
2021/09/20 08:50:20;;;;;;;;;;;21.70;69.60;;;;;;5015145;28;1705;-70
2021/09/20 08:52:46;;;;;;;;;;;21.70;69.60;;;;;;5006828;28;1307;-70
2021/09/20 08:55:12;;;;;;;;;;;21.70;69.70;;;;;;5006483;28;1866;-70
2021/09/20 08:57:37;;;;;;;;;;;21.70;69.70;;;;;;5004723;28;1287;-70
2021/09/20 09:00:03;;;;;;;;;;;21.70;69.70;;;;;;5013842;28;1278;-70
2021/09/20 09:02:30;;;;;;;;;;;21.70;69.70;;;;;;5032435;28;1647;-71
2021/09/20 09:04:56;;;;;;;;;;;21.70;69.70;;;;;;5015296;28;1769;-70
2021/09/20 09:07:21;;;;;;;;;;;21.70;69.80;;;;;;4998472;28;1898;-70
2021/09/20 09:09:47;;;;;;;;;;;21.70;69.80;;;;;;5029769;28;1398;-70
2021/09/20 09:12:13;;;;;;;;;;;21.70;69.90;;;;;;5015071;28;1531;-70
2021/09/20 09:14:43;;;;;;;;;;;21.70;69.90;;;;;;5033129;28;851;-70
2021/09/20 09:17:09;;;;;;;;;;;21.70;70.00;;;;;;5010091;28;2277;-70
2021/09/20 09:19:40;;;;;;;;;;;21.60;70.00;;;;;;5007131;28;2125;-70
2021/09/20 09:22:06;;;;;;;;;;;21.70;70.10;;;;;;5013372;28;1982;-70
2021/09/20 09:24:31;;;;;;;;;;;21.60;70.10;;;;;;5011640;28;2612;-70
2021/09/20 09:26:57;;;;;;;;;;;21.60;70.10;;;;;;5009192;28;1868;-70
2021/09/20 09:29:23;;;;;;;;;;;21.60;70.20;;;;;;5019550;28;1903;-71
2021/09/20 09:31:52;;;;;;;;;;;21.60;70.20;;;;;;5034646;28;1681;-70
2021/09/20 09:34:19;;;;;;;;;;;21.60;70.30;;;;;;5009732;28;1491;-70
2021/09/20 09:36:44;;;;;;;;;;;21.60;70.30;;;;;;5015646;28;1333;-70
2021/09/20 09:39:10;;;;;;;;;;;21.60;70.40;;;;;;5019279;28;1644;-70
2021/09/20 09:41:37;;;;;;;;;;;21.60;70.30;;;;;;5017022;28;1714;-70
2021/09/20 09:44:03;;;;;;;;;;;21.60;70.40;;;;;;5013558;28;1623;-70
2021/09/20 09:46:28;;;;;;;;;;;21.60;70.40;;;;;;5018842;28;1394;-70
2021/09/20 09:48:54;;;;;;;;;;;21.60;70.50;;;;;;5036904;28;1971;-69
2021/09/20 09:51:19;;;;;;;;;;;21.50;70.40;;;;;;5019023;28;1616;-69
2021/09/20 09:53:45;;;;;;;;;;;21.50;70.40;;;;;;5018827;28;1691;-69
2021/09/20 09:56:14;;;;;;;;;;;21.50;70.50;;;;;;5036316;28;1396;-70
2021/09/20 09:58:52;;;;;;;;;;;21.50;70.50;;;;;;5036653;28;1376;-70
2021/09/20 10:01:18;;;;;;;;;;;21.50;70.50;;;;;;5036528;28;1435;-70
2021/09/20 10:04:04;;;;;;;;;;;21.50;70.50;;;;;;5009386;28;2282;-71
2021/09/20 10:06:34;;;;;;;;;;;21.50;70.60;;;;;;5036345;28;1710;-70
2021/09/20 10:08:59;;;;;;;;;;;21.50;70.60;;;;;;5031656;28;1906;-69
2021/09/20 10:11:25;;;;;;;;;;;21.50;70.70;;;;;;5023918;28;1459;-70
2021/09/20 10:13:50;;;;;;;;;;;21.50;70.80;;;;;;5036141;28;1460;-71
2021/09/20 10:16:16;;;;;;;;;;;21.50;70.80;;;;;;5018095;28;1275;-70
2021/09/20 10:18:41;;;;;;;;;;;21.50;70.80;;;;;;5036084;28;1382;-71
2021/09/20 10:21:07;;;;;;;;;;;21.50;70.80;;;;;;5016638;28;2100;-70
2021/09/20 10:23:32;;;;;;;;;;;21.50;70.90;;;;;;5021394;28;1560;-71
2021/09/20 10:25:58;;;;;;;;;;;21.50;70.90;;;;;;5033898;28;1970;-70
2021/09/20 10:28:23;;;;;;;;;;;21.40;70.90;;;;;;5028531;28;1970;-71
2021/09/20 10:30:49;;;;;;;;;;;21.40;70.90;;;;;;5035773;28;1518;-71
2021/09/20 10:33:15;;;;;;;;;;;21.40;70.90;;;;;;5028265;28;1535;-71
2021/09/20 10:35:41;;;;;;;;;;;21.40;70.90;;;;;;5035384;28;1445;-71
2021/09/20 10:38:12;;;;;;;;;;;21.40;71.00;;;;;;5017601;28;1568;-71
2021/09/20 10:40:37;;;;;;;;;;;21.40;71.00;;;;;;5036008;28;1667;-71
2021/09/20 10:43:04;;;;;;;;;;;21.40;70.80;;;;;;5035216;28;1206;-70
2021/09/20 10:45:40;;;;;;;;;;;21.40;70.40;;;;;;5035797;28;1669;-71
2021/09/20 10:48:21;;;;;;;;;;;21.40;69.90;;;;;;5033108;28;1990;-71
2021/09/20 10:50:47;;;;;;;;;;;21.40;70.00;;;;;;5012939;28;1365;-70
2021/09/20 10:53:27;;;;;;;;;;;21.30;70.10;;;;;;5025274;28;1476;-71
2021/09/20 10:56:02;;;;;;;;;;;21.30;70.30;;;;;;5018327;28;1388;-70
2021/09/20 10:58:36;;;;;;;;;;;21.30;70.30;;;;;;5035227;28;1240;-71
2021/09/20 11:01:11;;;;;;;;;;;21.30;70.40;;;;;;5027703;28;1386;-70
2021/09/20 11:03:39;;;;;;;;;;;21.30;70.30;;;;;;5026081;28;1455;-71
2021/09/20 11:06:15;;;;;;;;;;;21.30;70.40;;;;;;5026602;28;1455;-72
2021/09/20 11:08:41;;;;;;;;;;;21.30;69.70;;;;;;5025403;28;2005;-71
2021/09/20 11:11:26;;;;;;;;;;;21.30;67.90;;;;;;5016233;28;1364;-71
2021/09/20 11:14:01;;;;;;;;;;;21.30;67.60;;;;;;5022079;28;2175;-70
2021/09/20 11:16:45;;;;;;;;;;;21.20;68.30;;;;;;5017076;28;1456;-71
2021/09/20 11:19:31;;;;;;;;;;;21.20;67.70;;;;;;5033752;28;1753;-71
2021/09/20 11:22:02;;;;;;;;;;;21.20;67.50;;;;;;5034401;28;1690;-71
2021/09/20 11:24:28;;;;;;;;;;;21.20;67.70;;;;;;5030928;28;1706;-70
2021/09/20 11:26:53;;;;;;;;;;;21.20;67.70;;;;;;5026530;28;1584;-70
2021/09/20 11:29:22;;;;;;;;;;;21.20;67.70;;;;;;5023423;28;1906;-69
2021/09/20 11:31:47;;;;;;;;;;;21.20;68.00;;;;;;5027475;28;1354;-69
2021/09/20 11:34:25;;;;;;;;;;;21.20;68.30;;;;;;5029389;28;1915;-69
2021/09/20 11:36:50;;;;;;;;;;;21.20;68.40;;;;;;5024683;28;1497;-69
2021/09/20 11:39:17;;;;;;;;;;;21.20;68.40;;;;;;5027395;28;1892;-69
2021/09/20 11:41:46;;;;;;;;;;;21.20;68.40;;;;;;5025660;28;1660;-68
2021/09/20 11:44:11;;;;;;;;;;;21.20;68.50;;;;;;5005806;28;1339;-69
2021/09/20 11:46:37;;;;;;;;;;;21.20;68.50;;;;;;5024869;28;1556;-72
2021/09/20 11:49:03;;;;;;;;;;;21.20;68.40;;;;;;5024824;28;1914;-72
2021/09/20 11:51:29;;;;;;;;;;;21.20;68.30;;;;;;5007275;28;1690;-72
2021/09/20 11:53:54;;;;;;;;;;;21.20;68.30;;;;;;5024199;28;1582;-72
2021/09/20 11:56:24;;;;;;;;;;;21.20;68.20;;;;;;5009181;28;1594;-70
2021/09/20 11:58:53;;;;;;;;;;;21.20;68.20;;;;;;5026331;28;1565;-70
2021/09/20 12:01:23;;;;;;;;;;;21.20;68.10;;;;;;5027745;28;1577;-70
2021/09/20 12:03:55;;;;;;;;;;;21.20;68.10;;;;;;5034252;28;1371;-70
2021/09/20 12:06:24;;;;;;;;;;;21.20;68.20;;;;;;5016334;28;1711;-70
2021/09/20 12:08:49;;;;;;;;;;;21.20;68.10;;;;;;5016231;28;1910;-70
2021/09/20 12:11:20;;;;;;;;;;;21.20;68.20;;;;;;5027861;28;1407;-70
2021/09/20 12:13:45;;;;;;;;;;;21.20;68.20;;;;;;5024089;28;1371;-70
2021/09/20 12:16:11;;;;;;;;;;;21.20;68.90;;;;;;5029094;28;1552;-70
2021/09/20 12:18:36;;;;;;;;;;;21.20;68.10;;;;;;5016099;28;1270;-70
2021/09/20 12:21:05;;;;;;;;;;;21.20;68.20;;;;;;5034012;28;1359;-69
2021/09/20 12:23:34;;;;;;;;;;;21.20;69.00;;;;;;5033709;28;1399;-68
2021/09/20 12:26:00;;;;;;;;;;;21.20;68.40;;;;;;5015632;28;1418;-71
2021/09/20 12:28:27;;;;;;;;;;;21.20;68.40;;;;;;5033522;28;1906;-70
2021/09/20 12:30:53;;;;;;;;;;;21.20;68.50;;;;;;5015932;28;1389;-71
2021/09/20 12:33:18;;;;;;;;;;;21.20;68.60;;;;;;5031699;28;1442;-70
2021/09/20 12:35:44;;;;;;;;;;;21.20;68.90;;;;;;5031008;28;1264;-71
2021/09/20 12:38:18;;;;;;;;;;;21.20;69.10;;;;;;5032739;28;1278;-71
2021/09/20 12:40:43;;;;;;;;;;;21.20;69.20;;;;;;5033499;28;1290;-70
2021/09/20 12:43:13;;;;;;;;;;;21.20;69.40;;;;;;5033281;28;1419;-70
2021/09/20 12:45:41;;;;;;;;;;;21.20;69.30;;;;;;5032805;28;1637;-71
2021/09/20 12:48:07;;;;;;;;;;;21.20;69.30;;;;;;5015752;28;1965;-71
2021/09/20 12:50:39;;;;;;;;;;;21.20;69.40;;;;;;5015892;28;1383;-71
2021/09/20 12:53:04;;;;;;;;;;;21.20;69.40;;;;;;5032845;28;1364;-71
2021/09/20 12:55:36;;;;;;;;;;;21.10;69.30;;;;;;5015437;28;1289;-71
2021/09/20 12:58:01;;;;;;;;;;;21.10;69.30;;;;;;5015367;28;1377;-71
2021/09/20 13:00:31;;;;;;;;;;;21.10;69.30;;;;;;5015295;28;1192;-71
2021/09/20 13:03:17;;;;;;;;;;;21.10;69.30;;;;;;5015350;28;1226;-71
2021/09/20 13:05:47;;;;;;;;;;;21.10;69.30;;;;;;5014046;28;1225;-71
2021/09/20 13:08:13;;;;;;;;;;;21.10;69.30;;;;;;5015037;28;1910;-71
2021/09/20 13:10:42;;;;;;;;;;;21.10;69.30;;;;;;5015240;28;1234;-71
2021/09/20 13:13:08;;;;;;;;;;;21.10;69.30;;;;;;5015709;28;1317;-71
2021/09/20 13:15:33;;;;;;;;;;;21.10;69.40;;;;;;5032598;28;1308;-71
2021/09/20 13:17:59;;;;;;;;;;;21.10;69.50;;;;;;5029829;28;2222;-71
2021/09/20 13:20:34;;;;;;;;;;;21.10;69.40;;;;;;5004314;28;1415;-71
2021/09/20 13:23:07;;;;;;;;;;;21.10;69.40;;;;;;5014248;28;1257;-71
2021/09/20 13:25:33;;;;;;;;;;;21.10;69.30;;;;;;5032320;28;1248;-71
2021/09/20 13:28:03;;;;;;;;;;;21.10;69.20;;;;;;5014850;28;1907;-71
2021/09/20 13:30:29;;;;;;;;;;;21.10;68.80;;;;;;5014587;28;1328;-71
2021/09/20 13:32:55;;;;;;;;;;;21.10;68.70;;;;;;5032853;28;1299;-71
2021/09/20 13:35:24;;;;;;;;;;;21.10;68.60;;;;;;5015360;28;1459;-71
2021/09/20 13:37:50;;;;;;;;;;;21.10;68.40;;;;;;5032516;28;1308;-71
2021/09/20 13:40:15;;;;;;;;;;;21.10;68.50;;;;;;5015015;28;1300;-71
2021/09/20 13:42:40;;;;;;;;;;;21.10;68.40;;;;;;5032566;28;1363;-71
2021/09/20 13:45:06;;;;;;;;;;;21.10;68.20;;;;;;5032526;28;1300;-71
2021/09/20 13:47:32;;;;;;;;;;;21.10;68.40;;;;;;5031976;28;1985;-71
2021/09/20 13:49:59;;;;;;;;;;;21.10;68.30;;;;;;5032460;28;1360;-71
2021/09/20 13:52:25;;;;;;;;;;;21.10;68.20;;;;;;5032423;28;1322;-71
2021/09/20 13:54:50;;;;;;;;;;;21.10;68.10;;;;;;5032424;28;1281;-70
2021/09/20 13:57:15;;;;;;;;;;;21.10;68.10;;;;;;5032118;28;1310;-71
2021/09/20 13:59:41;;;;;;;;;;;21.10;68.20;;;;;;5031946;28;1328;-71
2021/09/20 14:02:06;;;;;;;;;;;21.10;68.20;;;;;;5032505;28;1287;-70
2021/09/20 14:04:32;;;;;;;;;;;21.10;68.20;;;;;;5032296;28;1429;-70
2021/09/20 14:06:57;;;;;;;;;;;21.10;68.30;;;;;;5014626;28;1301;-71
2021/09/20 14:09:22;;;;;;;;;;;21.10;68.50;;;;;;5031407;28;1959;-70
2021/09/20 14:11:48;;;;;;;;;;;21.10;68.60;;;;;;5032454;28;1283;-71
2021/09/20 14:14:13;;;;;;;;;;;21.20;69.10;;;;;;5031834;28;1350;-71
2021/09/20 14:16:39;;;;;;;;;;;21.10;69.90;;;;;;5031953;28;1314;-71
2021/09/20 14:19:04;;;;;;;;;;;21.10;70.30;;;;;;5017974;28;1337;-71
2021/09/20 14:21:30;;;;;;;;;;;21.10;70.40;;;;;;5036036;28;1143;-70
2021/09/20 14:23:55;;;;;;;;;;;21.10;70.40;;;;;;5035717;28;1280;-70
2021/09/20 14:26:21;;;;;;;;;;;21.10;70.00;;;;;;5035693;28;1085;-70